createdAt,value
2022-12-25T00:01:17.646Z,10.70
2022-12-25T00:03:44.958Z,10.70
2022-12-25T00:06:12.091Z,10.60
2022-12-25T00:08:39.871Z,10.60
2022-12-25T00:11:09.304Z,10.60
2022-12-25T00:13:36.287Z,10.70
2022-12-25T00:16:12.746Z,10.70
2022-12-25T00:18:39.402Z,10.70
2022-12-25T00:21:07.046Z,10.70
2022-12-25T00:23:35.127Z,10.70
2022-12-25T00:26:05.976Z,10.60
2022-12-25T00:28:32.655Z,10.60
2022-12-25T00:30:59.376Z,10.60
2022-12-25T00:33:26.340Z,10.60
2022-12-25T00:36:00.903Z,10.60
2022-12-25T00:38:27.951Z,10.60
2022-12-25T00:40:54.856Z,10.60
2022-12-25T00:43:21.739Z,10.60
2022-12-25T00:45:59.188Z,10.60
2022-12-25T00:48:26.877Z,10.60
2022-12-25T00:50:58.646Z,10.60
2022-12-25T00:53:26.252Z,10.60
2022-12-25T00:55:58.608Z,10.60
2022-12-25T00:58:27.463Z,10.50
2022-12-25T01:00:54.548Z,10.50
2022-12-25T01:03:21.310Z,10.50
2022-12-25T01:06:02.024Z,10.30
2022-12-25T01:08:31.385Z,10.30
2022-12-25T01:11:03.986Z,10.30
2022-12-25T01:13:31.956Z,10.30
2022-12-25T01:15:58.712Z,10.20
2022-12-25T01:18:25.886Z,10.30
2022-12-25T01:20:52.519Z,10.20
2022-12-25T01:23:19.261Z,10.30
2022-12-25T01:25:45.890Z,10.30
2022-12-25T01:28:12.661Z,10.30
2022-12-25T01:30:39.827Z,10.20
2022-12-25T01:33:06.534Z,10.30
2022-12-25T01:35:33.189Z,10.30
2022-12-25T01:37:59.819Z,10.30
2022-12-25T01:40:26.582Z,10.40
2022-12-25T01:42:53.212Z,10.40
2022-12-25T01:45:42.051Z,10.50
2022-12-25T01:48:14.786Z,10.50
2022-12-25T01:50:46.045Z,10.50
2022-12-25T01:53:13.096Z,10.50
2022-12-25T01:55:43.403Z,10.50
2022-12-25T01:58:10.050Z,10.60
2022-12-25T02:00:36.809Z,10.60
2022-12-25T02:03:04.865Z,10.60
2022-12-25T02:05:34.324Z,10.60
2022-12-25T02:08:06.319Z,10.60
2022-12-25T02:10:33.009Z,10.60
2022-12-25T02:13:00.639Z,10.60
2022-12-25T02:15:35.080Z,10.60
2022-12-25T02:18:17.387Z,10.60
2022-12-25T02:20:55.588Z,10.60
2022-12-25T02:23:49.550Z,10.60
2022-12-25T02:26:38.626Z,10.60
2022-12-25T02:29:33.137Z,10.50
2022-12-25T02:32:07.774Z,10.50
2022-12-25T02:34:43.618Z,10.50
2022-12-25T02:37:37.323Z,10.60
2022-12-25T02:40:40.154Z,10.60
2022-12-25T02:43:38.377Z,10.60
2022-12-25T02:46:27.946Z,10.60
2022-12-25T02:49:27.127Z,10.70
2022-12-25T02:52:20.674Z,10.70
2022-12-25T02:55:13.799Z,10.60
2022-12-25T02:58:05.836Z,10.70
2022-12-25T03:00:55.929Z,10.70
2022-12-25T03:03:44.029Z,10.70
2022-12-25T03:06:30.328Z,10.70
2022-12-25T03:09:18.974Z,10.70
2022-12-25T03:11:48.042Z,10.70
2022-12-25T03:14:33.453Z,10.70
2022-12-25T03:17:00.637Z,10.70
2022-12-25T03:19:50.219Z,10.70
2022-12-25T03:22:45.271Z,10.70
2022-12-25T03:25:31.440Z,10.70
2022-12-25T03:27:59.040Z,10.70
2022-12-25T03:31:13.186Z,10.70
2022-12-25T03:34:04.880Z,10.70
2022-12-25T03:36:49.668Z,10.70
2022-12-25T03:39:45.790Z,10.70
2022-12-25T03:42:53.603Z,10.60
2022-12-25T03:45:55.931Z,10.60
2022-12-25T03:48:43.225Z,10.60
2022-12-25T03:51:32.332Z,10.60
2022-12-25T03:54:23.856Z,10.70
2022-12-25T03:57:09.878Z,10.70
2022-12-25T03:59:55.280Z,10.70
2022-12-25T04:02:41.109Z,10.70
2022-12-25T04:05:26.646Z,10.70
2022-12-25T04:08:12.198Z,10.70
2022-12-25T04:10:57.630Z,10.70
2022-12-25T04:13:43.004Z,10.70
2022-12-25T04:16:42.040Z,10.70
2022-12-25T04:19:28.046Z,10.70
2022-12-25T04:22:27.021Z,10.70
2022-12-25T04:25:12.377Z,10.70
2022-12-25T04:27:57.843Z,10.70
2022-12-25T04:30:43.182Z,10.70
2022-12-25T04:33:28.682Z,10.70
2022-12-25T04:36:13.507Z,10.70
2022-12-25T04:38:40.896Z,10.70
2022-12-25T04:41:12.719Z,10.70
2022-12-25T04:43:39.731Z,10.70
2022-12-25T04:46:06.713Z,10.70
2022-12-25T04:48:35.767Z,10.70
2022-12-25T04:51:20.333Z,10.70
2022-12-25T04:53:48.063Z,10.70
2022-12-25T04:56:15.741Z,10.60
2022-12-25T04:58:42.797Z,10.70
2022-12-25T05:01:09.891Z,10.70
2022-12-25T05:03:37.334Z,10.60
2022-12-25T05:06:05.483Z,10.60
2022-12-25T05:08:34.309Z,10.60
2022-12-25T05:11:04.892Z,10.50
2022-12-25T05:13:32.216Z,10.50
2022-12-25T05:15:58.976Z,10.50
2022-12-25T05:18:25.858Z,10.40
2022-12-25T05:20:54.292Z,10.40
2022-12-25T05:23:21.348Z,10.30
2022-12-25T05:25:47.987Z,10.30
2022-12-25T05:28:15.009Z,10.20
2022-12-25T05:30:41.681Z,10.20
2022-12-25T05:33:08.402Z,10.20
2022-12-25T05:35:37.531Z,10.10
2022-12-25T05:38:05.705Z,10.10
2022-12-25T05:40:32.682Z,10.10
2022-12-25T05:42:59.303Z,10.00
2022-12-25T05:45:25.938Z,9.90
2022-12-25T05:47:53.373Z,9.90
2022-12-25T05:50:20.009Z,9.90
2022-12-25T05:52:46.647Z,9.80
2022-12-25T05:55:13.268Z,9.80
2022-12-25T05:57:39.920Z,9.70
2022-12-25T06:00:07.222Z,9.70
2022-12-25T06:02:36.205Z,9.60
2022-12-25T06:05:04.514Z,9.50
2022-12-25T06:07:31.188Z,9.50
2022-12-25T06:09:57.801Z,9.50
2022-12-25T06:12:24.448Z,9.50
2022-12-25T06:14:51.075Z,9.40
2022-12-25T06:17:17.681Z,9.40
2022-12-25T06:19:44.350Z,9.40
2022-12-25T06:22:10.958Z,9.40
2022-12-25T06:24:38.419Z,9.30
2022-12-25T06:27:05.019Z,9.30
2022-12-25T06:29:31.667Z,9.20
2022-12-25T06:31:58.913Z,9.20
2022-12-25T06:34:27.082Z,9.20
2022-12-25T06:36:53.763Z,9.10
2022-12-25T06:39:21.461Z,9.10
2022-12-25T06:41:48.201Z,9.10
2022-12-25T06:44:14.820Z,9.10
2022-12-25T06:46:41.460Z,9.10
2022-12-25T06:49:08.197Z,9.10
2022-12-25T06:51:34.890Z,9.00
2022-12-25T06:54:04.946Z,9.00
2022-12-25T06:56:33.563Z,9.00
2022-12-25T06:59:05.518Z,9.00
2022-12-25T07:01:39.593Z,9.00
2022-12-25T07:04:11.012Z,8.90
2022-12-25T07:06:37.636Z,8.90
2022-12-25T07:09:04.263Z,8.90
2022-12-25T07:11:30.917Z,8.90
2022-12-25T07:13:57.529Z,8.90
2022-12-25T07:16:24.281Z,8.90
2022-12-25T07:18:50.942Z,8.90
2022-12-25T07:21:19.557Z,8.90
2022-12-25T07:23:48.268Z,8.90
2022-12-25T07:26:15.395Z,8.80
2022-12-25T07:28:42.077Z,8.90
2022-12-25T07:31:12.983Z,8.90
2022-12-25T07:33:40.437Z,8.90
2022-12-25T07:36:07.734Z,8.80
2022-12-25T07:38:39.458Z,8.80
2022-12-25T07:41:10.153Z,8.90
2022-12-25T07:43:37.098Z,8.80
2022-12-25T07:46:04.937Z,8.80
2022-12-25T07:48:32.097Z,8.80
2022-12-25T07:51:12.423Z,8.80
2022-12-25T07:53:39.587Z,8.80
2022-12-25T07:56:17.501Z,8.80
2022-12-25T07:58:44.748Z,8.80
2022-12-25T08:01:18.324Z,8.80
2022-12-25T08:03:50.232Z,8.80
2022-12-25T08:06:17.038Z,8.70
2022-12-25T08:08:43.676Z,8.70
2022-12-25T08:11:10.519Z,8.70
2022-12-25T08:13:37.559Z,8.70
2022-12-25T08:16:08.558Z,8.70
2022-12-25T08:18:37.027Z,8.70
2022-12-25T08:21:09.230Z,8.70
2022-12-25T08:23:38.492Z,8.80
2022-12-25T08:26:06.547Z,8.80
2022-12-25T08:28:34.562Z,8.80
2022-12-25T08:31:23.023Z,8.90
2022-12-25T08:33:52.248Z,8.90
2022-12-25T08:36:19.775Z,8.90
2022-12-25T08:38:46.699Z,8.90
2022-12-25T08:41:14.372Z,8.90
2022-12-25T08:43:41.074Z,9.00
2022-12-25T08:46:08.831Z,9.00
2022-12-25T08:48:35.965Z,9.10
2022-12-25T08:51:04.275Z,9.10
2022-12-25T08:53:31.133Z,9.20
2022-12-25T08:56:03.728Z,9.30
2022-12-25T08:58:30.473Z,9.30
2022-12-25T09:00:57.265Z,9.40
2022-12-25T09:03:24.625Z,9.40
2022-12-25T09:05:55.241Z,9.50
2022-12-25T09:08:22.296Z,9.50
2022-12-25T09:10:49.254Z,9.60
2022-12-25T09:13:15.958Z,9.60
2022-12-25T09:15:42.625Z,9.70
2022-12-25T09:18:09.294Z,9.70
2022-12-25T09:20:35.948Z,9.80
2022-12-25T09:23:02.646Z,9.80
2022-12-25T09:25:29.306Z,9.80
2022-12-25T09:27:56.610Z,9.90
2022-12-25T09:30:25.961Z,9.90
2022-12-25T09:32:52.626Z,9.90
2022-12-25T09:35:19.265Z,9.90
2022-12-25T09:37:46.007Z,10.00
2022-12-25T09:40:20.066Z,10.00
2022-12-25T09:42:48.417Z,10.10
2022-12-25T09:45:24.507Z,10.10
2022-12-25T09:47:54.937Z,10.10
2022-12-25T09:50:33.619Z,10.20
2022-12-25T09:53:06.123Z,10.20
2022-12-25T09:55:38.239Z,10.20
2022-12-25T09:58:12.386Z,10.30
2022-12-25T10:00:43.887Z,10.30
2022-12-25T10:03:38.542Z,10.40
2022-12-25T10:06:12.136Z,10.50
2022-12-25T10:09:05.626Z,10.50
2022-12-25T10:11:46.199Z,10.60
2022-12-25T10:14:26.291Z,10.70
2022-12-25T10:17:25.461Z,10.80
2022-12-25T10:20:13.387Z,10.90
2022-12-25T10:22:47.704Z,11.10
2022-12-25T10:25:23.347Z,11.10
2022-12-25T10:27:54.218Z,11.20
2022-12-25T10:30:24.104Z,11.30
2022-12-25T10:32:51.571Z,11.30
2022-12-25T10:35:24.259Z,11.30
2022-12-25T10:38:02.004Z,11.40
2022-12-25T10:40:44.094Z,11.40
2022-12-25T10:43:15.536Z,11.40
2022-12-25T10:45:49.761Z,11.40
2022-12-25T10:48:25.010Z,11.50
2022-12-25T10:50:52.276Z,11.40
2022-12-25T10:53:29.204Z,11.50
2022-12-25T10:56:03.507Z,11.50
2022-12-25T10:58:31.258Z,11.50
2022-12-25T11:01:01.066Z,11.50
2022-12-25T11:03:34.167Z,11.60
2022-12-25T11:06:02.746Z,11.60
2022-12-25T11:08:31.310Z,11.50
2022-12-25T11:11:08.670Z,11.50
2022-12-25T11:13:40.173Z,11.50
2022-12-25T11:16:25.176Z,11.50
2022-12-25T11:18:54.303Z,11.40
2022-12-25T11:21:30.291Z,11.40
2022-12-25T11:24:05.548Z,11.40
2022-12-25T11:26:45.730Z,11.40
2022-12-25T11:29:29.593Z,11.40
2022-12-25T11:32:00.290Z,11.40
2022-12-25T11:34:34.384Z,11.40
2022-12-25T11:37:03.115Z,11.40
2022-12-25T11:39:39.976Z,11.40
2022-12-25T11:42:24.444Z,11.40
2022-12-25T11:45:15.522Z,11.40
2022-12-25T11:47:45.091Z,11.40
2022-12-25T11:50:20.238Z,11.40
2022-12-25T11:52:48.113Z,11.40
2022-12-25T11:55:32.705Z,11.50
2022-12-25T11:58:02.950Z,11.50
2022-12-25T12:00:30.692Z,11.50
2022-12-25T12:03:13.453Z,11.60
2022-12-25T12:05:47.989Z,11.70
2022-12-25T12:08:15.502Z,11.70
2022-12-25T12:10:45.128Z,11.70
2022-12-25T12:13:24.009Z,11.70
2022-12-25T12:15:51.109Z,11.70
2022-12-25T12:18:27.968Z,11.70
2022-12-25T12:21:23.540Z,11.70
2022-12-25T12:24:01.869Z,11.80
2022-12-25T12:26:31.492Z,11.80
2022-12-25T12:29:00.690Z,11.90
2022-12-25T12:31:46.453Z,11.90
2022-12-25T12:34:29.199Z,11.90
2022-12-25T12:37:11.236Z,11.90
2022-12-25T12:39:40.378Z,11.90
2022-12-25T12:42:16.779Z,11.90
2022-12-25T12:44:45.334Z,11.90
2022-12-25T12:47:37.970Z,11.90
2022-12-25T12:50:06.157Z,11.90
2022-12-25T12:52:38.426Z,12.00
2022-12-25T12:55:14.077Z,12.00
2022-12-25T12:57:41.612Z,12.10
2022-12-25T13:00:16.924Z,12.20
2022-12-25T13:03:02.687Z,12.20
2022-12-25T13:05:46.075Z,12.20
2022-12-25T13:08:43.160Z,12.30
2022-12-25T13:11:26.741Z,12.30
2022-12-25T13:13:56.884Z,12.30
2022-12-25T13:16:26.600Z,12.40
2022-12-25T13:18:55.152Z,12.50
2022-12-25T13:21:29.803Z,12.60
2022-12-25T13:24:08.772Z,12.60
2022-12-25T13:26:36.183Z,12.70
2022-12-25T13:29:07.953Z,12.70
2022-12-25T13:31:40.340Z,12.80
2022-12-25T13:34:37.396Z,12.80
2022-12-25T13:37:10.055Z,12.80
2022-12-25T13:39:39.323Z,12.90
2022-12-25T13:42:09.419Z,12.90
2022-12-25T13:44:46.093Z,12.90
2022-12-25T13:47:26.842Z,13.00
2022-12-25T13:49:55.558Z,13.00
2022-12-25T13:52:42.412Z,13.00
2022-12-25T13:55:18.742Z,13.00
2022-12-25T13:58:06.723Z,13.00
2022-12-25T14:00:48.533Z,13.10
2022-12-25T14:03:20.478Z,13.00
2022-12-25T14:05:56.936Z,13.10
2022-12-25T14:08:27.487Z,13.10
2022-12-25T14:10:55.717Z,13.00
2022-12-25T14:13:25.962Z,13.00
2022-12-25T14:15:56.197Z,13.00
2022-12-25T14:18:23.874Z,13.00
2022-12-25T14:21:10.234Z,13.00
2022-12-25T14:23:45.894Z,13.00
2022-12-25T14:26:32.633Z,13.00
2022-12-25T14:29:16.816Z,13.00
2022-12-25T14:31:45.352Z,13.10
2022-12-25T14:34:18.451Z,13.10
2022-12-25T14:36:45.824Z,13.10
2022-12-25T14:39:30.551Z,13.10
2022-12-25T14:41:57.854Z,13.00
2022-12-25T14:44:40.970Z,13.00
2022-12-25T14:47:10.618Z,13.00
2022-12-25T14:49:38.411Z,12.90
2022-12-25T14:52:14.376Z,12.90
2022-12-25T14:54:45.782Z,12.90
2022-12-25T14:57:19.743Z,12.80
2022-12-25T14:59:46.476Z,12.70
2022-12-25T15:02:17.935Z,12.70
2022-12-25T15:04:45.022Z,12.60
2022-12-25T15:07:28.441Z,12.60
2022-12-25T15:10:18.521Z,12.50
2022-12-25T15:12:42.084Z,12.50
2022-12-25T15:15:09.267Z,12.50
2022-12-25T15:17:36.725Z,12.40
2022-12-25T15:20:04.084Z,12.40
2022-12-25T15:22:47.636Z,12.40
2022-12-25T15:25:17.590Z,12.40
2022-12-25T15:27:44.215Z,12.40
2022-12-25T15:30:11.473Z,12.40
2022-12-25T15:32:38.264Z,12.40
2022-12-25T15:35:05.432Z,12.50
2022-12-25T15:37:32.485Z,12.50
2022-12-25T15:39:59.572Z,12.60
2022-12-25T15:42:26.308Z,12.60
2022-12-25T15:44:52.959Z,12.60
2022-12-25T15:47:20.168Z,12.60
2022-12-25T15:49:47.007Z,12.70
2022-12-25T15:52:16.599Z,12.70
2022-12-25T15:54:43.349Z,12.70
2022-12-25T15:57:22.318Z,12.70
2022-12-25T15:59:49.052Z,12.70
2022-12-25T16:02:18.861Z,12.70
2022-12-25T16:04:46.187Z,12.70
2022-12-25T16:07:18.376Z,12.70
2022-12-25T16:09:45.068Z,12.70
2022-12-25T16:12:12.002Z,12.80
2022-12-25T16:14:38.625Z,12.70
2022-12-25T16:17:05.723Z,12.70
2022-12-25T16:19:32.611Z,12.70
2022-12-25T16:21:59.283Z,12.70
2022-12-25T16:24:25.973Z,12.70
2022-12-25T16:26:52.630Z,12.70
2022-12-25T16:29:19.502Z,12.70
2022-12-25T16:31:46.255Z,12.60
2022-12-25T16:34:12.904Z,12.60
2022-12-25T16:36:39.534Z,12.60
2022-12-25T16:39:07.135Z,12.60
2022-12-25T16:41:33.831Z,12.60
2022-12-25T16:44:09.050Z,12.60
2022-12-25T16:46:36.974Z,12.60
2022-12-25T16:49:04.070Z,12.60
2022-12-25T16:51:30.768Z,12.60
2022-12-25T16:53:57.424Z,12.60
2022-12-25T16:56:25.542Z,12.60
2022-12-25T16:58:52.375Z,12.60
2022-12-25T17:01:21.440Z,12.60
2022-12-25T17:03:49.498Z,12.70
2022-12-25T17:06:17.492Z,12.60
2022-12-25T17:08:44.571Z,12.60
2022-12-25T17:11:11.696Z,12.60
2022-12-25T17:13:38.357Z,12.50
2022-12-25T17:16:20.493Z,12.50
2022-12-25T17:18:47.198Z,12.50
2022-12-25T17:21:17.240Z,12.60
2022-12-25T17:23:45.042Z,12.60
2022-12-25T17:26:11.870Z,12.60
2022-12-25T17:28:38.700Z,12.70
2022-12-25T17:31:11.309Z,12.70
2022-12-25T17:33:40.514Z,12.70
2022-12-25T17:36:13.791Z,12.80
2022-12-25T17:38:40.500Z,12.80
2022-12-25T17:41:09.979Z,12.80
2022-12-25T17:43:45.425Z,12.80
2022-12-25T17:46:18.715Z,12.70
2022-12-25T17:48:46.291Z,12.80
2022-12-25T17:51:16.041Z,12.70
2022-12-25T17:53:45.514Z,12.70
2022-12-25T17:56:13.919Z,12.70
2022-12-25T17:58:40.689Z,12.80
2022-12-25T18:01:13.187Z,12.80
2022-12-25T18:03:40.529Z,12.80
2022-12-25T18:06:09.911Z,12.80
2022-12-25T18:08:39.577Z,12.80
2022-12-25T18:11:13.632Z,12.70
2022-12-25T18:13:42.084Z,12.70
2022-12-25T18:16:08.893Z,12.70
2022-12-25T18:18:35.796Z,12.70
2022-12-25T18:21:02.664Z,12.70
2022-12-25T18:23:29.844Z,12.70
2022-12-25T18:25:56.681Z,12.70
2022-12-25T18:28:23.335Z,12.70
2022-12-25T18:30:49.968Z,12.60
2022-12-25T18:33:16.575Z,12.60
2022-12-25T18:35:44.048Z,12.60
2022-12-25T18:38:11.549Z,12.60
2022-12-25T18:40:46.941Z,12.60
2022-12-25T18:43:14.074Z,12.60
2022-12-25T18:45:41.316Z,12.60
2022-12-25T18:48:09.533Z,12.60
2022-12-25T18:50:38.908Z,12.50
2022-12-25T18:53:06.241Z,12.50
2022-12-25T18:55:32.891Z,12.50
2022-12-25T18:57:59.537Z,12.40
2022-12-25T19:00:27.971Z,12.40
2022-12-25T19:02:58.079Z,12.30
2022-12-25T19:05:25.522Z,12.30
2022-12-25T19:07:52.210Z,12.20
2022-12-25T19:10:18.964Z,12.20
2022-12-25T19:12:45.667Z,12.10
2022-12-25T19:15:12.458Z,12.10
2022-12-25T19:17:39.084Z,12.00
2022-12-25T19:20:06.162Z,12.00
2022-12-25T19:22:32.917Z,11.90
2022-12-25T19:24:59.583Z,11.90
2022-12-25T19:27:26.224Z,11.90
2022-12-25T19:29:52.906Z,11.80
2022-12-25T19:32:19.550Z,11.80
2022-12-25T19:34:46.176Z,11.70
2022-12-25T19:37:12.908Z,11.70
2022-12-25T19:39:41.684Z,11.70
2022-12-25T19:42:08.288Z,11.70
2022-12-25T19:44:34.913Z,11.60
2022-12-25T19:47:01.570Z,11.60
2022-12-25T19:49:28.202Z,11.50
2022-12-25T19:51:54.802Z,11.50
2022-12-25T19:54:21.429Z,11.50
2022-12-25T19:56:49.112Z,11.50
2022-12-25T19:59:16.132Z,11.50
2022-12-25T20:01:43.195Z,11.50
2022-12-25T20:04:10.729Z,11.50
2022-12-25T20:06:39.127Z,11.50
2022-12-25T20:09:12.780Z,11.50
2022-12-25T20:11:40.530Z,11.50
2022-12-25T20:14:08.041Z,11.50
2022-12-25T20:16:37.825Z,11.50
2022-12-25T20:19:05.035Z,11.50
2022-12-25T20:21:31.838Z,11.50
2022-12-25T20:23:58.971Z,11.40
2022-12-25T20:26:28.461Z,11.40
2022-12-25T20:28:55.220Z,11.40
2022-12-25T20:31:27.201Z,11.40
2022-12-25T20:33:55.520Z,11.40
2022-12-25T20:36:22.225Z,11.40
2022-12-25T20:38:48.894Z,11.40
2022-12-25T20:41:28.427Z,11.30
2022-12-25T20:43:56.584Z,11.40
2022-12-25T20:46:24.055Z,11.30
2022-12-25T20:48:51.866Z,11.30
2022-12-25T20:51:21.273Z,11.30
2022-12-25T20:53:48.605Z,11.30
2022-12-25T20:56:17.507Z,11.30
2022-12-25T20:58:44.397Z,11.40
2022-12-25T21:01:13.805Z,11.40
2022-12-25T21:03:41.160Z,11.40
2022-12-25T21:06:08.757Z,11.40
2022-12-25T21:08:36.359Z,11.40
2022-12-25T21:11:04.256Z,11.40
2022-12-25T21:13:34.123Z,11.40
2022-12-25T21:16:01.090Z,11.40
2022-12-25T21:18:28.293Z,11.40
2022-12-25T21:20:57.825Z,11.40
2022-12-25T21:23:28.442Z,11.40
2022-12-25T21:25:55.117Z,11.40
2022-12-25T21:28:22.874Z,11.40
2022-12-25T21:30:49.677Z,11.50
2022-12-25T21:33:35.466Z,11.50
2022-12-25T21:36:11.654Z,11.50
2022-12-25T21:38:38.992Z,11.50
2022-12-25T21:41:10.741Z,11.50
2022-12-25T21:43:38.831Z,11.50
2022-12-25T21:46:08.167Z,11.50
2022-12-25T21:48:36.488Z,11.50
2022-12-25T21:51:23.345Z,11.50
2022-12-25T21:53:50.311Z,11.50
2022-12-25T21:56:17.492Z,11.60
2022-12-25T21:58:44.271Z,11.60
2022-12-25T22:01:11.708Z,11.70
2022-12-25T22:03:38.424Z,11.70
2022-12-25T22:06:24.212Z,11.80
2022-12-25T22:08:50.886Z,11.80
2022-12-25T22:11:36.216Z,11.90
2022-12-25T22:14:52.928Z,11.90
2022-12-25T22:17:26.899Z,11.80
2022-12-25T22:19:54.106Z,11.80
2022-12-25T22:22:24.087Z,11.90
2022-12-25T22:24:52.693Z,11.90
2022-12-25T22:27:20.226Z,11.90
2022-12-25T22:29:47.100Z,12.00
2022-12-25T22:32:14.995Z,12.00
2022-12-25T22:34:42.009Z,12.00
2022-12-25T22:37:12.795Z,12.00
2022-12-25T22:39:39.394Z,12.00
2022-12-25T22:42:06.297Z,12.00
2022-12-25T22:44:33.047Z,12.10
2022-12-25T22:47:00.124Z,12.10
2022-12-25T22:49:26.986Z,12.10
2022-12-25T22:51:54.224Z,12.10
2022-12-25T22:54:22.530Z,12.10
2022-12-25T22:56:51.978Z,12.20
2022-12-25T22:59:21.806Z,12.20
2022-12-25T23:01:52.204Z,12.20
2022-12-25T23:04:18.959Z,12.20
2022-12-25T23:06:46.552Z,12.10
2022-12-25T23:09:18.999Z,12.20
2022-12-25T23:11:50.852Z,12.20
2022-12-25T23:14:36.014Z,12.20
2022-12-25T23:17:02.828Z,12.20
2022-12-25T23:19:48.179Z,12.20
2022-12-25T23:22:33.601Z,12.20
2022-12-25T23:25:18.978Z,12.20
2022-12-25T23:27:45.969Z,12.20
2022-12-25T23:30:14.900Z,12.20
2022-12-25T23:32:42.631Z,12.10
2022-12-25T23:35:10.519Z,12.10
2022-12-25T23:37:37.145Z,12.10
2022-12-25T23:40:04.163Z,12.10
2022-12-25T23:42:30.780Z,12.10
2022-12-25T23:44:57.408Z,12.10
2022-12-25T23:47:24.095Z,12.10
2022-12-25T23:49:50.810Z,12.10
2022-12-25T23:52:17.428Z,12.10
2022-12-25T23:54:44.029Z,12.10
2022-12-25T23:57:10.663Z,12.10
2022-12-25T23:59:37.324Z,12.10
